Nearby METAR Reports

 

KEQY - Monroe, North Carolina, USA
Distance from station: S 11mi, 18km
Updated: Tue, 09/23/2014 11:53am EDT
Overcast
Overcast
 Wind from NNE
Wind: NNE 13 mph , 20 km/h
Temperature: 61°F , 16°C
Dew Point: 52°F , 11°C
Humidity: 72%
Barometer: 30.30 inHg , 1026.1 hPa
Clouds: Overcast
Visibility: 10 miles , 16 km
Cloud details: Overcast 8000 ft
2014/09/23 15:53 KEQY 231553Z AUTO 03011KT 10SM OVC080 16/11 A3030 RMK AO2 RAB1457E26 SLP265 P0000 T01610106
KJQF - Concord Reg Arpt, North Carolina, USA
Distance from station: NNW 16mi, 25km
Updated: Tue, 09/23/2014 11:54am EDT
Overcast
Overcast
 Wind from NE
Wind: NE 5 mph , 7 km/h
Temperature: 61°F , 16°C
Dew Point: 50°F , 10°C
Humidity: 68%
Barometer: 30.36 inHg , 1028.1 hPa
Clouds: Overcast
Visibility: 10 miles , 16 km
Cloud details: Mostly cloudy 3400 ft
Overcast 4000 ft
2014/09/23 15:54 KJQF 231554Z 04004KT 10SM BKN034 OVC040 16/10 A3036
 
KCLT - Charlotte, North Carolina, USA
Distance from station: W 20mi, 33km
Updated: Tue, 09/23/2014 11:52am EDT
Overcast
Overcast
 Wind from NE
Wind: NE 13 mph , 20 km/h
Temperature: 61°F , 16°C
Dew Point: 48°F , 9°C
Humidity: 63%
Barometer: 30.31 inHg , 1026.4 hPa
Clouds: Overcast
Visibility: 10 miles , 16 km
Cloud details: Partly cloudy 3500 ft
Mostly cloudy 4500 ft
Overcast 9000 ft
2014/09/23 15:52 KCLT 231552Z 05011KT 10SM SCT035 BKN045 OVC090 16/09 A3031 RMK AO2 SLP261 T01610089
KUZA - Rock Hill, South Carolina, USA
Distance from station: WSW 29mi, 47km
Updated: Tue, 09/23/2014 11:54am EDT
Light rain, Overcast
Light rain, Overcast
 Wind from ENE
Wind: ENE 7 mph , 11 km/h
Temperature: 61°F , 16°C
Dew Point: 54°F , 12°C
Humidity: 77%
Barometer: 30.31 inHg , 1026.4 hPa
Summary: Light rain
Clouds: Overcast
Visibility: 9 miles , 14 km
Cloud details: Mostly cloudy 10000 ft
Overcast 12000 ft
2014/09/23 15:54 KUZA 231554Z AUTO 06006KT 9SM -RA BKN100 OVC120 16/12 A3031 RMK AO2 RAB23 SLP259 P0000 T01560117
 
KVUJ - Albemarle Stanly, North Carolina, USA
Distance from station: NE 30mi, 48km
Updated: Tue, 09/23/2014 12:15pm EDT
Overcast
Overcast
 Wind from NNE
Wind: NNE 12 mph , 19 km/h
Temperature: 59°F , 15°C
Dew Point: 50°F , 10°C
Humidity: 72%
Barometer: 30.36 inHg , 1028.1 hPa
Clouds: Overcast
Visibility: 10 miles , 16 km
Cloud details: Partly cloudy 7000 ft
Overcast 10000 ft
2014/09/23 16:15 KVUJ 231615Z AUTO 03010KT 10SM SCT070 OVC100 15/10 A3036 RMK AO2 T01530101
KAFP - Wadesboro/Anson, North Carolina, USA
Distance from station: ESE 31mi, 50km
Updated: Tue, 09/23/2014 12:15pm EDT
Haze, Overcast
Haze, Overcast
 Wind from NNE
Wind: NNE 10 mph , 17 km/h
Temperature: 63°F , 17°C
Dew Point: 50°F , 10°C
Humidity: 64%
Barometer: 30.30 inHg , 1026.1 hPa
Summary: Haze
Clouds: Overcast
Visibility: 5 miles , 8 km
Cloud details: Mostly cloudy 6500 ft
Overcast 8000 ft
2014/09/23 16:15 KAFP 231615Z AUTO 02009KT 5SM HZ BKN065 OVC080 17/10 A3030 RMK AO2 T01660099
 
KAKH - Gastonia, North Carolina, USA
Distance from station: W 31mi, 51km
Updated: Tue, 09/23/2014 11:54am EDT
Mostly cloudy
Mostly cloudy
 Wind from NNE
Wind: NNE 9 mph , 15 km/h
Temperature: 61°F , 16°C
Dew Point: 52°F , 11°C
Humidity: 72%
Barometer: 30.31 inHg , 1026.4 hPa
Clouds: Mostly cloudy
Visibility: 10 miles , 16 km
Cloud details: Few Clouds 3400 ft
Partly cloudy 5500 ft
Mostly cloudy 11000 ft
2014/09/23 15:54 KAKH 231554Z AUTO 03008KT 10SM FEW034 SCT055 BKN110 16/11 A3031 RMK AO2 RAE10 SLP261 P0000 T01610106
KRUQ - Salisbury Rowan, North Carolina, USA
Distance from station: N 33mi, 53km
Updated: Tue, 09/23/2014 12:15pm EDT
Overcast
Overcast
 Wind from NNE
Wind: NNE 7 mph , 11 km/h
Temperature: 59°F , 15°C
Dew Point: 46°F , 8°C
Humidity: 63%
Barometer: 30.34 inHg , 1027.4 hPa
Clouds: Overcast
Visibility: 10 miles , 16 km
Cloud details: Overcast 11000 ft
2014/09/23 16:15 KRUQ 231615Z AUTO 02006KT 10SM OVC110 15/08 A3034 RMK AO2 T01450083
 
KLKR - Lancaster, South Carolina, USA
Distance from station: SSW 35mi, 57km
Updated: Tue, 09/23/2014 12:15pm EDT
Light rain, Mostly cloudy
Light rain, Mostly cloudy
 Wind from NE
Wind: NE 12 mph , 19 km/h, Gust: 18 mph , 30 km/h
Temperature: 59°F , 15°C
Dew Point: 55°F , 13°C
Humidity: 88%
Barometer: 30.29 inHg , 1025.7 hPa
Summary: Light rain
Clouds: Mostly cloudy
Visibility: 7 miles , 11 km
Cloud details: Few Clouds 3300 ft
Partly cloudy 4500 ft
Mostly cloudy 7000 ft
2014/09/23 16:15 KLKR 231615Z AUTO 05010G16KT 7SM -RA FEW033 SCT045 BKN070 15/13 A3029 RMK AO2
KIPJ - Lincolnton, North Carolina, USA
Distance from station: WNW 39mi, 62km
Updated: Tue, 09/23/2014 12:15pm EDT
Mostly cloudy
Mostly cloudy
 Wind from NNE
Wind: NNE 7 mph , 11 km/h
Temperature: 59°F , 15°C
Dew Point: 48°F , 9°C
Humidity: 68%
Barometer: 30.33 inHg , 1027.1 hPa
Clouds: Mostly cloudy
Visibility: 10 miles , 16 km
Cloud details: Mostly cloudy 3500 ft
2014/09/23 16:15 KIPJ 231615Z AUTO 03006KT 10SM BKN035 15/09 A3033 RMK AO2 T01510091
 
KDCM - Chester Catawba, South Carolina, USA
Distance from station: SW 44mi, 71km
Updated: Tue, 09/23/2014 12:15pm EDT
Mostly cloudy
Mostly cloudy
 Wind from NNE
Wind: NNE 17 mph , 28 km/h, Gust: 22 mph , 35 km/h
Temperature: 64°F , 18°C
Dew Point: 52°F , 11°C
Humidity: 64%
Barometer: 30.33 inHg , 1027.1 hPa
Clouds: Mostly cloudy
Visibility: 10 miles , 16 km
Cloud details: Mostly cloudy 9500 ft
2014/09/23 16:15 KDCM 231615Z AUTO 03015G19KT 10SM BKN095 18/11 A3033 RMK AO2
KSVH - Statesville, North Carolina, USA
Distance from station: NNW 44mi, 71km
Updated: Tue, 09/23/2014 12:15pm EDT
Overcast
Overcast
 Wind from NNE
Wind: NNE 9 mph , 15 km/h
Temperature: 57°F , 14°C
Dew Point: 48°F , 9°C
Humidity: 72%
Barometer: 30.33 inHg , 1027.1 hPa
Clouds: Overcast
Visibility: 10 miles , 16 km
Cloud details: Mostly cloudy 3300 ft
Overcast 12000 ft
2014/09/23 16:15 KSVH 231615Z AUTO 03008KT 10SM BKN033 OVC120 14/09 A3033 RMK AO2 T01420091
 
KEXX - Davidson Cty Ap, North Carolina, USA
Distance from station: NNE 45mi, 72km
Updated: Tue, 09/23/2014 12:10pm EDT
Mostly cloudy
Mostly cloudy
 Wind from NNE
Wind: NNE 6 mph , 9 km/h
Temperature: 59°F , 15°C
Dew Point: 46°F , 8°C
Humidity: 63%
Barometer: 30.32 inHg , 1026.8 hPa
Clouds: Mostly cloudy
Visibility: 10 miles , 16 km
Cloud details: Mostly cloudy 12000 ft
2014/09/23 16:10 KEXX 231610Z AUTO 02005KT 10SM BKN120 15/08 A3032 RMK AO2 T01500082
KCQW - Cheraw, South Carolina, USA
Distance from station: SE 49mi, 78km
Updated: Tue, 09/23/2014 12:15pm EDT
Overcast
Overcast
 Wind from NE
Wind: NE 10 mph , 17 km/h
Temperature: 59°F , 15°C
Dew Point: 54°F , 12°C
Humidity: 82%
Barometer: 30.28 inHg , 1025.4 hPa
Clouds: Overcast
Visibility: 10 miles , 16 km
Cloud details: Mostly cloudy 6000 ft
Overcast 6500 ft
2014/09/23 16:15 KCQW 231615Z AUTO 04009KT 10SM BKN060 OVC065 15/12 A3028 RMK AO2